sensor_id;sensor_type;location;lat;lon;timestamp;P1;durP1;ratioP1;P2;durP2;ratioP2
28311;SDS011;15572;48.810;9.148;2023-07-24T00:02:13;12.90;;;8.53;;
28311;SDS011;15572;48.810;9.148;2023-07-24T00:07:11;13.87;;;8.33;;
28311;SDS011;15572;48.810;9.148;2023-07-24T00:12:07;11.53;;;8.07;;
28311;SDS011;15572;48.810;9.148;2023-07-24T00:17:04;13.43;;;8.03;;
28311;SDS011;15572;48.810;9.148;2023-07-24T00:22:01;14.85;;;8.68;;
28311;SDS011;15572;48.810;9.148;2023-07-24T00:26:59;11.55;;;8.35;;
28311;SDS011;15572;48.810;9.148;2023-07-24T00:31:56;10.45;;;7.63;;
28311;SDS011;15572;48.810;9.148;2023-07-24T00:36:53;16.90;;;9.07;;
28311;SDS011;15572;48.810;9.148;2023-07-24T00:41:49;11.70;;;7.90;;
28311;SDS011;15572;48.810;9.148;2023-07-24T00:46:47;14.43;;;8.20;;
28311;SDS011;15572;48.810;9.148;2023-07-24T00:51:44;12.87;;;8.07;;
28311;SDS011;15572;48.810;9.148;2023-07-24T00:56:42;11.07;;;8.13;;
28311;SDS011;15572;48.810;9.148;2023-07-24T01:01:40;12.17;;;8.00;;
28311;SDS011;15572;48.810;9.148;2023-07-24T01:06:40;11.40;;;7.73;;
28311;SDS011;15572;48.810;9.148;2023-07-24T01:11:37;12.13;;;8.23;;
28311;SDS011;15572;48.810;9.148;2023-07-24T01:16:38;12.30;;;8.30;;
28311;SDS011;15572;48.810;9.148;2023-07-24T01:21:39;11.67;;;7.67;;
28311;SDS011;15572;48.810;9.148;2023-07-24T01:26:49;12.40;;;7.97;;
28311;SDS011;15572;48.810;9.148;2023-07-24T01:31:46;13.53;;;8.40;;
28311;SDS011;15572;48.810;9.148;2023-07-24T01:36:43;11.27;;;7.67;;
28311;SDS011;15572;48.810;9.148;2023-07-24T01:41:39;13.20;;;8.53;;
28311;SDS011;15572;48.810;9.148;2023-07-24T01:46:37;12.40;;;8.83;;
28311;SDS011;15572;48.810;9.148;2023-07-24T01:51:34;13.53;;;8.43;;
28311;SDS011;15572;48.810;9.148;2023-07-24T01:56:30;11.77;;;8.23;;
28311;SDS011;15572;48.810;9.148;2023-07-24T02:01:27;12.03;;;8.03;;
28311;SDS011;15572;48.810;9.148;2023-07-24T02:06:25;13.57;;;8.03;;
28311;SDS011;15572;48.810;9.148;2023-07-24T02:11:21;13.93;;;8.20;;
28311;SDS011;15572;48.810;9.148;2023-07-24T02:16:18;13.47;;;8.80;;
28311;SDS011;15572;48.810;9.148;2023-07-24T02:21:14;12.20;;;8.23;;
28311;SDS011;15572;48.810;9.148;2023-07-24T02:26:12;13.87;;;8.30;;
28311;SDS011;15572;48.810;9.148;2023-07-24T02:31:08;12.03;;;8.17;;
28311;SDS011;15572;48.810;9.148;2023-07-24T02:36:05;13.20;;;8.13;;
28311;SDS011;15572;48.810;9.148;2023-07-24T02:41:01;12.77;;;8.07;;
28311;SDS011;15572;48.810;9.148;2023-07-24T02:46:01;15.13;;;8.13;;
28311;SDS011;15572;48.810;9.148;2023-07-24T02:50:57;12.77;;;8.10;;
28311;SDS011;15572;48.810;9.148;2023-07-24T02:55:54;13.93;;;8.70;;
28311;SDS011;15572;48.810;9.148;2023-07-24T03:00:50;12.77;;;8.90;;
28311;SDS011;15572;48.810;9.148;2023-07-24T03:05:48;13.77;;;7.77;;
28311;SDS011;15572;48.810;9.148;2023-07-24T03:10:45;12.07;;;8.17;;
28311;SDS011;15572;48.810;9.148;2023-07-24T03:15:41;12.37;;;8.07;;
28311;SDS011;15572;48.810;9.148;2023-07-24T03:20:37;12.13;;;8.30;;
28311;SDS011;15572;48.810;9.148;2023-07-24T03:25:35;12.07;;;8.03;;
28311;SDS011;15572;48.810;9.148;2023-07-24T03:30:32;12.43;;;7.80;;
28311;SDS011;15572;48.810;9.148;2023-07-24T03:35:28;15.73;;;7.97;;
28311;SDS011;15572;48.810;9.148;2023-07-24T03:40:25;12.73;;;8.17;;
28311;SDS011;15572;48.810;9.148;2023-07-24T03:45:23;12.93;;;7.73;;
28311;SDS011;15572;48.810;9.148;2023-07-24T03:50:19;11.67;;;7.23;;
28311;SDS011;15572;48.810;9.148;2023-07-24T03:55:16;11.93;;;8.13;;
28311;SDS011;15572;48.810;9.148;2023-07-24T04:00:12;10.97;;;7.27;;
28311;SDS011;15572;48.810;9.148;2023-07-24T04:05:11;12.47;;;7.77;;
28311;SDS011;15572;48.810;9.148;2023-07-24T04:10:07;10.57;;;7.63;;
28311;SDS011;15572;48.810;9.148;2023-07-24T04:15:05;11.93;;;8.17;;
28311;SDS011;15572;48.810;9.148;2023-07-24T04:20:02;12.33;;;9.00;;
28311;SDS011;15572;48.810;9.148;2023-07-24T04:25:00;14.33;;;8.23;;
28311;SDS011;15572;48.810;9.148;2023-07-24T04:29:57;10.70;;;8.10;;
28311;SDS011;15572;48.810;9.148;2023-07-24T04:34:53;11.57;;;8.43;;
28311;SDS011;15572;48.810;9.148;2023-07-24T04:39:50;11.87;;;8.13;;
28311;SDS011;15572;48.810;9.148;2023-07-24T04:44:48;11.90;;;8.57;;
28311;SDS011;15572;48.810;9.148;2023-07-24T04:49:46;11.13;;;8.23;;
28311;SDS011;15572;48.810;9.148;2023-07-24T04:54:43;12.93;;;8.83;;
28311;SDS011;15572;48.810;9.148;2023-07-24T04:59:39;11.57;;;8.27;;
28311;SDS011;15572;48.810;9.148;2023-07-24T05:04:37;12.03;;;8.50;;
28311;SDS011;15572;48.810;9.148;2023-07-24T05:09:33;11.05;;;8.40;;
28311;SDS011;15572;48.810;9.148;2023-07-24T05:14:30;13.97;;;8.70;;
28311;SDS011;15572;48.810;9.148;2023-07-24T05:19:26;13.13;;;8.00;;
28311;SDS011;15572;48.810;9.148;2023-07-24T05:24:24;13.80;;;8.67;;
28311;SDS011;15572;48.810;9.148;2023-07-24T05:29:20;13.50;;;8.00;;
28311;SDS011;15572;48.810;9.148;2023-07-24T05:34:17;12.20;;;8.45;;
28311;SDS011;15572;48.810;9.148;2023-07-24T05:39:13;14.60;;;8.25;;
28311;SDS011;15572;48.810;9.148;2023-07-24T05:44:11;12.88;;;8.48;;
28311;SDS011;15572;48.810;9.148;2023-07-24T05:49:08;16.80;;;8.77;;
28311;SDS011;15572;48.810;9.148;2023-07-24T05:54:04;15.07;;;8.73;;
28311;SDS011;15572;48.810;9.148;2023-07-24T05:59:00;12.13;;;7.77;;
28311;SDS011;15572;48.810;9.148;2023-07-24T06:03:58;15.93;;;9.50;;
28311;SDS011;15572;48.810;9.148;2023-07-24T06:08:55;13.98;;;9.45;;
28311;SDS011;15572;48.810;9.148;2023-07-24T06:13:51;12.88;;;8.73;;
28311;SDS011;15572;48.810;9.148;2023-07-24T06:18:48;14.50;;;8.35;;
28311;SDS011;15572;48.810;9.148;2023-07-24T06:23:45;13.63;;;8.90;;
28311;SDS011;15572;48.810;9.148;2023-07-24T06:28:42;11.57;;;8.13;;
28311;SDS011;15572;48.810;9.148;2023-07-24T06:33:39;15.52;;;8.07;;
28311;SDS011;15572;48.810;9.148;2023-07-24T06:38:35;12.35;;;8.30;;
28311;SDS011;15572;48.810;9.148;2023-07-24T06:43:33;12.57;;;8.52;;
28311;SDS011;15572;48.810;9.148;2023-07-24T06:48:30;13.05;;;8.40;;
28311;SDS011;15572;48.810;9.148;2023-07-24T06:53:27;13.93;;;8.23;;
28311;SDS011;15572;48.810;9.148;2023-07-24T06:58:23;13.48;;;8.10;;
28311;SDS011;15572;48.810;9.148;2023-07-24T07:03:21;13.82;;;8.32;;
28311;SDS011;15572;48.810;9.148;2023-07-24T07:08:17;14.07;;;8.27;;
28311;SDS011;15572;48.810;9.148;2023-07-24T07:13:14;12.27;;;8.63;;
28311;SDS011;15572;48.810;9.148;2023-07-24T07:18:10;11.48;;;8.73;;
28311;SDS011;15572;48.810;9.148;2023-07-24T07:23:08;13.35;;;8.57;;
28311;SDS011;15572;48.810;9.148;2023-07-24T07:28:05;20.90;;;8.07;;
28311;SDS011;15572;48.810;9.148;2023-07-24T07:33:01;13.57;;;8.27;;
28311;SDS011;15572;48.810;9.148;2023-07-24T07:37:59;14.90;;;7.95;;
28311;SDS011;15572;48.810;9.148;2023-07-24T07:42:57;11.18;;;7.93;;
28311;SDS011;15572;48.810;9.148;2023-07-24T07:47:53;13.52;;;7.82;;
28311;SDS011;15572;48.810;9.148;2023-07-24T07:52:50;11.30;;;7.97;;
28311;SDS011;15572;48.810;9.148;2023-07-24T07:57:47;13.95;;;8.20;;
28311;SDS011;15572;48.810;9.148;2023-07-24T08:02:44;12.20;;;8.13;;
28311;SDS011;15572;48.810;9.148;2023-07-24T08:07:41;11.23;;;7.50;;
28311;SDS011;15572;48.810;9.148;2023-07-24T08:12:37;13.48;;;8.10;;
28311;SDS011;15572;48.810;9.148;2023-07-24T08:17:34;17.77;;;8.38;;
28311;SDS011;15572;48.810;9.148;2023-07-24T08:22:32;13.48;;;8.65;;
28311;SDS011;15572;48.810;9.148;2023-07-24T08:27:28;12.63;;;8.27;;
28311;SDS011;15572;48.810;9.148;2023-07-24T08:32:25;14.88;;;8.85;;
28311;SDS011;15572;48.810;9.148;2023-07-24T08:37:21;15.95;;;8.88;;
28311;SDS011;15572;48.810;9.148;2023-07-24T08:42:19;11.80;;;8.82;;
28311;SDS011;15572;48.810;9.148;2023-07-24T08:47:16;14.88;;;9.63;;
28311;SDS011;15572;48.810;9.148;2023-07-24T08:52:13;15.48;;;9.68;;
28311;SDS011;15572;48.810;9.148;2023-07-24T08:57:10;14.65;;;9.93;;
28311;SDS011;15572;48.810;9.148;2023-07-24T09:02:09;15.65;;;10.88;;
28311;SDS011;15572;48.810;9.148;2023-07-24T09:07:06;14.02;;;9.70;;
28311;SDS011;15572;48.810;9.148;2023-07-24T09:12:03;15.18;;;9.35;;
28311;SDS011;15572;48.810;9.148;2023-07-24T09:17:03;11.00;;;7.55;;
28311;SDS011;15572;48.810;9.148;2023-07-24T09:22:08;10.80;;;7.35;;
28311;SDS011;15572;48.810;9.148;2023-07-24T09:27:06;10.70;;;7.55;;
28311;SDS011;15572;48.810;9.148;2023-07-24T09:32:03;10.60;;;7.63;;
28311;SDS011;15572;48.810;9.148;2023-07-24T09:37:00;10.38;;;7.88;;
28311;SDS011;15572;48.810;9.148;2023-07-24T09:42:03;10.00;;;6.88;;
28311;SDS011;15572;48.810;9.148;2023-07-24T09:47:01;8.90;;;6.50;;
28311;SDS011;15572;48.810;9.148;2023-07-24T09:51:58;12.48;;;7.25;;
28311;SDS011;15572;48.810;9.148;2023-07-24T09:56:55;10.60;;;7.55;;
28311;SDS011;15572;48.810;9.148;2023-07-24T10:01:54;10.93;;;6.93;;
28311;SDS011;15572;48.810;9.148;2023-07-24T10:06:51;12.15;;;7.53;;
28311;SDS011;15572;48.810;9.148;2023-07-24T10:11:48;11.48;;;6.68;;
28311;SDS011;15572;48.810;9.148;2023-07-24T10:16:45;8.88;;;6.40;;
28311;SDS011;15572;48.810;9.148;2023-07-24T10:21:46;8.20;;;5.90;;
28311;SDS011;15572;48.810;9.148;2023-07-24T10:26:43;7.65;;;6.00;;
28311;SDS011;15572;48.810;9.148;2023-07-24T10:31:39;8.82;;;6.43;;
28311;SDS011;15572;48.810;9.148;2023-07-24T10:36:36;8.73;;;6.20;;
28311;SDS011;15572;48.810;9.148;2023-07-24T10:41:35;8.95;;;6.35;;
28311;SDS011;15572;48.810;9.148;2023-07-24T10:46:36;10.15;;;6.88;;
28311;SDS011;15572;48.810;9.148;2023-07-24T10:51:33;9.70;;;6.95;;
28311;SDS011;15572;48.810;9.148;2023-07-24T10:56:32;10.77;;;7.00;;
28311;SDS011;15572;48.810;9.148;2023-07-24T11:01:30;11.48;;;7.18;;
28311;SDS011;15572;48.810;9.148;2023-07-24T11:06:27;10.20;;;7.10;;
28311;SDS011;15572;48.810;9.148;2023-07-24T11:11:27;12.38;;;7.88;;
28311;SDS011;15572;48.810;9.148;2023-07-24T11:16:25;11.63;;;7.00;;
28311;SDS011;15572;48.810;9.148;2023-07-24T11:21:23;11.23;;;8.02;;
28311;SDS011;15572;48.810;9.148;2023-07-24T11:26:20;11.43;;;7.82;;
28311;SDS011;15572;48.810;9.148;2023-07-24T11:31:18;11.45;;;7.78;;
28311;SDS011;15572;48.810;9.148;2023-07-24T11:36:15;12.05;;;7.45;;
28311;SDS011;15572;48.810;9.148;2023-07-24T11:41:13;12.63;;;7.38;;
28311;SDS011;15572;48.810;9.148;2023-07-24T11:46:21;9.32;;;7.40;;
28311;SDS011;15572;48.810;9.148;2023-07-24T11:51:18;9.73;;;7.35;;
28311;SDS011;15572;48.810;9.148;2023-07-24T11:56:17;9.73;;;7.05;;
28311;SDS011;15572;48.810;9.148;2023-07-24T12:01:15;9.07;;;6.88;;
28311;SDS011;15572;48.810;9.148;2023-07-24T12:06:14;9.52;;;6.75;;
28311;SDS011;15572;48.810;9.148;2023-07-24T12:11:19;11.10;;;7.82;;
28311;SDS011;15572;48.810;9.148;2023-07-24T12:16:15;9.35;;;6.80;;
28311;SDS011;15572;48.810;9.148;2023-07-24T12:21:12;10.52;;;6.90;;
28311;SDS011;15572;48.810;9.148;2023-07-24T12:26:08;11.70;;;6.82;;
28311;SDS011;15572;48.810;9.148;2023-07-24T12:31:06;9.30;;;6.25;;
28311;SDS011;15572;48.810;9.148;2023-07-24T12:36:03;8.43;;;6.40;;
28311;SDS011;15572;48.810;9.148;2023-07-24T12:41:00;10.35;;;6.78;;
28311;SDS011;15572;48.810;9.148;2023-07-24T12:45:57;8.40;;;6.03;;
28311;SDS011;15572;48.810;9.148;2023-07-24T12:50:54;10.23;;;6.95;;
28311;SDS011;15572;48.810;9.148;2023-07-24T12:55:52;8.75;;;6.40;;
28311;SDS011;15572;48.810;9.148;2023-07-24T13:00:49;10.18;;;6.97;;
28311;SDS011;15572;48.810;9.148;2023-07-24T13:05:45;10.15;;;7.03;;
28311;SDS011;15572;48.810;9.148;2023-07-24T13:10:43;11.18;;;7.47;;
28311;SDS011;15572;48.810;9.148;2023-07-24T13:15:40;9.65;;;6.82;;
28311;SDS011;15572;48.810;9.148;2023-07-24T13:20:36;9.20;;;6.50;;
28311;SDS011;15572;48.810;9.148;2023-07-24T13:25:33;8.43;;;5.97;;
28311;SDS011;15572;48.810;9.148;2023-07-24T13:30:31;9.07;;;6.30;;
28311;SDS011;15572;48.810;9.148;2023-07-24T13:35:27;9.02;;;6.13;;
28311;SDS011;15572;48.810;9.148;2023-07-24T13:40:23;7.72;;;5.70;;
28311;SDS011;15572;48.810;9.148;2023-07-24T13:45:20;9.93;;;6.40;;
28311;SDS011;15572;48.810;9.148;2023-07-24T13:50:18;7.18;;;5.18;;
28311;SDS011;15572;48.810;9.148;2023-07-24T13:55:14;7.28;;;5.47;;
28311;SDS011;15572;48.810;9.148;2023-07-24T14:00:11;6.75;;;5.20;;
28311;SDS011;15572;48.810;9.148;2023-07-24T14:05:08;6.60;;;5.18;;
28311;SDS011;15572;48.810;9.148;2023-07-24T14:10:07;7.22;;;4.95;;
28311;SDS011;15572;48.810;9.148;2023-07-24T14:15:05;7.03;;;4.93;;
28311;SDS011;15572;48.810;9.148;2023-07-24T14:20:02;5.75;;;4.53;;
28311;SDS011;15572;48.810;9.148;2023-07-24T14:24:59;5.45;;;4.60;;
28311;SDS011;15572;48.810;9.148;2023-07-24T14:29:56;5.80;;;4.43;;
28311;SDS011;15572;48.810;9.148;2023-07-24T14:34:53;5.88;;;4.18;;
28311;SDS011;15572;48.810;9.148;2023-07-24T14:39:49;5.65;;;4.45;;
28311;SDS011;15572;48.810;9.148;2023-07-24T14:44:46;5.95;;;2.83;;
28311;SDS011;15572;48.810;9.148;2023-07-24T14:49:44;7.00;;;4.50;;
28311;SDS011;15572;48.810;9.148;2023-07-24T14:54:40;5.85;;;4.15;;
28311;SDS011;15572;48.810;9.148;2023-07-24T14:59:37;4.68;;;4.03;;
28311;SDS011;15572;48.810;9.148;2023-07-24T15:04:33;5.30;;;3.95;;
28311;SDS011;15572;48.810;9.148;2023-07-24T15:09:31;5.75;;;4.28;;
28311;SDS011;15572;48.810;9.148;2023-07-24T15:14:27;5.60;;;4.47;;
28311;SDS011;15572;48.810;9.148;2023-07-24T15:19:24;5.72;;;4.40;;
28311;SDS011;15572;48.810;9.148;2023-07-24T15:24:20;5.20;;;3.88;;
28311;SDS011;15572;48.810;9.148;2023-07-24T15:29:18;6.55;;;3.65;;
28311;SDS011;15572;48.810;9.148;2023-07-24T15:34:15;5.57;;;4.03;;
28311;SDS011;15572;48.810;9.148;2023-07-24T15:39:11;5.68;;;4.18;;
28311;SDS011;15572;48.810;9.148;2023-07-24T15:44:07;7.07;;;4.18;;
28311;SDS011;15572;48.810;9.148;2023-07-24T15:49:05;5.63;;;4.18;;
28311;SDS011;15572;48.810;9.148;2023-07-24T15:54:02;4.97;;;3.95;;
28311;SDS011;15572;48.810;9.148;2023-07-24T15:59:02;5.22;;;3.92;;
28311;SDS011;15572;48.810;9.148;2023-07-24T16:03:58;5.80;;;3.90;;
28311;SDS011;15572;48.810;9.148;2023-07-24T16:08:56;6.32;;;3.90;;
28311;SDS011;15572;48.810;9.148;2023-07-24T16:13:55;7.18;;;3.90;;
28311;SDS011;15572;48.810;9.148;2023-07-24T16:24:07;4.47;;;3.60;;
28311;SDS011;15572;48.810;9.148;2023-07-24T16:29:06;4.72;;;3.97;;
28311;SDS011;15572;48.810;9.148;2023-07-24T16:34:02;5.07;;;4.00;;
28311;SDS011;15572;48.810;9.148;2023-07-24T16:38:59;5.85;;;4.28;;
28311;SDS011;15572;48.810;9.148;2023-07-24T16:43:57;3.95;;;2.80;;
28311;SDS011;15572;48.810;9.148;2023-07-24T16:48:53;3.50;;;2.53;;
28311;SDS011;15572;48.810;9.148;2023-07-24T16:53:50;3.30;;;2.42;;
28311;SDS011;15572;48.810;9.148;2023-07-24T16:58:46;3.92;;;2.53;;
28311;SDS011;15572;48.810;9.148;2023-07-24T17:03:45;6.30;;;3.10;;
28311;SDS011;15572;48.810;9.148;2023-07-24T17:08:41;4.97;;;3.40;;
28311;SDS011;15572;48.810;9.148;2023-07-24T17:13:37;7.22;;;3.88;;
28311;SDS011;15572;48.810;9.148;2023-07-24T17:18:36;10.23;;;4.63;;
28311;SDS011;15572;48.810;9.148;2023-07-24T17:23:33;6.53;;;4.60;;
28311;SDS011;15572;48.810;9.148;2023-07-24T17:28:30;6.22;;;4.60;;
28311;SDS011;15572;48.810;9.148;2023-07-24T17:33:26;5.85;;;4.18;;
28311;SDS011;15572;48.810;9.148;2023-07-24T17:38:23;8.02;;;3.22;;
28311;SDS011;15572;48.810;9.148;2023-07-24T17:43:21;4.38;;;2.70;;
28311;SDS011;15572;48.810;9.148;2023-07-24T17:48:17;3.85;;;2.75;;
28311;SDS011;15572;48.810;9.148;2023-07-24T17:53:14;3.83;;;2.50;;
28311;SDS011;15572;48.810;9.148;2023-07-24T17:58:10;3.50;;;2.70;;
28311;SDS011;15572;48.810;9.148;2023-07-24T18:03:08;2.78;;;2.53;;
28311;SDS011;15572;48.810;9.148;2023-07-24T18:08:05;2.65;;;2.45;;
28311;SDS011;15572;48.810;9.148;2023-07-24T18:13:01;4.22;;;2.20;;
28311;SDS011;15572;48.810;9.148;2023-07-24T18:17:58;2.92;;;2.10;;
28311;SDS011;15572;48.810;9.148;2023-07-24T18:22:56;2.83;;;2.30;;
28311;SDS011;15572;48.810;9.148;2023-07-24T18:27:52;3.85;;;2.47;;
28311;SDS011;15572;48.810;9.148;2023-07-24T18:32:48;3.00;;;2.50;;
28311;SDS011;15572;48.810;9.148;2023-07-24T18:37:45;2.97;;;2.67;;
28311;SDS011;15572;48.810;9.148;2023-07-24T18:42:43;3.28;;;2.60;;
28311;SDS011;15572;48.810;9.148;2023-07-24T18:47:39;2.65;;;2.33;;
28311;SDS011;15572;48.810;9.148;2023-07-24T18:52:36;4.20;;;2.60;;
28311;SDS011;15572;48.810;9.148;2023-07-24T18:57:33;2.63;;;2.10;;
28311;SDS011;15572;48.810;9.148;2023-07-24T19:02:30;2.70;;;2.13;;
28311;SDS011;15572;48.810;9.148;2023-07-24T19:07:27;2.42;;;2.22;;
28311;SDS011;15572;48.810;9.148;2023-07-24T19:12:23;2.20;;;1.70;;
28311;SDS011;15572;48.810;9.148;2023-07-24T19:17:20;2.13;;;1.90;;
28311;SDS011;15572;48.810;9.148;2023-07-24T19:22:18;2.90;;;1.88;;
28311;SDS011;15572;48.810;9.148;2023-07-24T19:27:14;2.78;;;2.20;;
28311;SDS011;15572;48.810;9.148;2023-07-24T19:32:11;4.70;;;2.60;;
28311;SDS011;15572;48.810;9.148;2023-07-24T19:37:07;3.63;;;2.10;;
28311;SDS011;15572;48.810;9.148;2023-07-24T19:42:05;4.60;;;2.10;;
28311;SDS011;15572;48.810;9.148;2023-07-24T19:47:03;2.60;;;2.40;;
28311;SDS011;15572;48.810;9.148;2023-07-24T19:52:00;8.43;;;2.03;;
28311;SDS011;15572;48.810;9.148;2023-07-24T19:56:57;3.23;;;2.10;;
28311;SDS011;15572;48.810;9.148;2023-07-24T20:01:55;3.30;;;2.13;;
28311;SDS011;15572;48.810;9.148;2023-07-24T20:06:52;3.25;;;2.30;;
28311;SDS011;15572;48.810;9.148;2023-07-24T20:11:49;3.58;;;2.45;;
28311;SDS011;15572;48.810;9.148;2023-07-24T20:16:45;3.03;;;2.35;;
28311;SDS011;15572;48.810;9.148;2023-07-24T20:21:43;3.10;;;2.20;;
28311;SDS011;15572;48.810;9.148;2023-07-24T20:26:39;4.50;;;2.33;;
28311;SDS011;15572;48.810;9.148;2023-07-24T20:31:36;5.67;;;3.50;;
28311;SDS011;15572;48.810;9.148;2023-07-24T20:36:32;6.83;;;3.40;;
28311;SDS011;15572;48.810;9.148;2023-07-24T20:41:31;4.13;;;2.37;;
28311;SDS011;15572;48.810;9.148;2023-07-24T20:46:28;3.90;;;2.30;;
28311;SDS011;15572;48.810;9.148;2023-07-24T20:51:25;3.07;;;2.40;;
28311;SDS011;15572;48.810;9.148;2023-07-24T20:56:22;2.73;;;1.90;;
28311;SDS011;15572;48.810;9.148;2023-07-24T21:01:20;5.43;;;3.07;;
28311;SDS011;15572;48.810;9.148;2023-07-24T21:06:18;4.47;;;2.50;;
28311;SDS011;15572;48.810;9.148;2023-07-24T21:11:14;4.90;;;2.13;;
28311;SDS011;15572;48.810;9.148;2023-07-24T21:16:11;5.27;;;2.40;;
28311;SDS011;15572;48.810;9.148;2023-07-24T21:21:09;3.07;;;2.40;;
28311;SDS011;15572;48.810;9.148;2023-07-24T21:26:06;4.00;;;2.23;;
28311;SDS011;15572;48.810;9.148;2023-07-24T21:31:06;3.00;;;2.10;;
28311;SDS011;15572;48.810;9.148;2023-07-24T21:36:03;5.30;;;2.50;;
28311;SDS011;15572;48.810;9.148;2023-07-24T21:41:01;2.83;;;2.43;;
28311;SDS011;15572;48.810;9.148;2023-07-24T21:45:57;4.40;;;3.57;;
28311;SDS011;15572;48.810;9.148;2023-07-24T21:50:54;4.33;;;3.50;;
28311;SDS011;15572;48.810;9.148;2023-07-24T21:55:50;3.73;;;2.90;;
28311;SDS011;15572;48.810;9.148;2023-07-24T22:00:48;2.50;;;2.30;;
28311;SDS011;15572;48.810;9.148;2023-07-24T22:05:45;5.37;;;2.33;;
28311;SDS011;15572;48.810;9.148;2023-07-24T22:10:41;3.10;;;2.20;;
28311;SDS011;15572;48.810;9.148;2023-07-24T22:15:38;2.93;;;2.40;;
28311;SDS011;15572;48.810;9.148;2023-07-24T22:20:35;2.87;;;2.40;;
28311;SDS011;15572;48.810;9.148;2023-07-24T22:25:33;3.17;;;2.43;;
28311;SDS011;15572;48.810;9.148;2023-07-24T22:30:30;4.47;;;2.47;;
28311;SDS011;15572;48.810;9.148;2023-07-24T22:35:26;3.50;;;2.90;;
28311;SDS011;15572;48.810;9.148;2023-07-24T22:40:24;4.87;;;2.77;;
28311;SDS011;15572;48.810;9.148;2023-07-24T22:45:23;4.03;;;3.03;;
28311;SDS011;15572;48.810;9.148;2023-07-24T22:50:20;3.67;;;2.90;;
28311;SDS011;15572;48.810;9.148;2023-07-24T22:55:17;5.20;;;2.93;;
28311;SDS011;15572;48.810;9.148;2023-07-24T23:00:15;5.47;;;3.03;;
28311;SDS011;15572;48.810;9.148;2023-07-24T23:05:12;3.47;;;2.90;;
28311;SDS011;15572;48.810;9.148;2023-07-24T23:10:09;4.67;;;2.90;;
28311;SDS011;15572;48.810;9.148;2023-07-24T23:15:06;4.17;;;3.03;;
28311;SDS011;15572;48.810;9.148;2023-07-24T23:20:05;3.73;;;2.90;;
28311;SDS011;15572;48.810;9.148;2023-07-24T23:25:03;3.43;;;2.70;;
28311;SDS011;15572;48.810;9.148;2023-07-24T23:30:00;3.17;;;2.77;;
28311;SDS011;15572;48.810;9.148;2023-07-24T23:34:56;4.30;;;3.27;;
28311;SDS011;15572;48.810;9.148;2023-07-24T23:39:54;5.37;;;3.00;;
28311;SDS011;15572;48.810;9.148;2023-07-24T23:44:51;4.57;;;3.17;;
28311;SDS011;15572;48.810;9.148;2023-07-24T23:49:47;4.90;;;2.90;;
28311;SDS011;15572;48.810;9.148;2023-07-24T23:54:44;4.87;;;3.30;;
28311;SDS011;15572;48.810;9.148;2023-07-24T23:59:41;3.80;;;2.57;;
